createdAt,value
2018-08-19T00:02:26.200Z,73.25
2018-08-19T00:05:06.964Z,74.04
2018-08-19T00:07:35.695Z,73.40
2018-08-19T00:10:05.679Z,72.20
2018-08-19T00:12:45.576Z,72.99
2018-08-19T00:15:15.601Z,71.95
2018-08-19T00:17:44.267Z,72.04
2018-08-19T00:20:14.571Z,72.57
2018-08-19T00:22:47.096Z,72.83
2018-08-19T00:25:26.783Z,72.60
2018-08-19T00:27:55.448Z,74.02
2018-08-19T00:30:27.924Z,72.67
2018-08-19T00:32:59.744Z,73.14
2018-08-19T00:35:29.083Z,73.56
2018-08-19T00:37:59.744Z,73.74
2018-08-19T00:40:29.341Z,73.16
2018-08-19T00:42:59.961Z,73.29
2018-08-19T00:45:29.347Z,73.19
2018-08-19T00:47:57.905Z,74.21
2018-08-19T00:50:30.960Z,74.64
2018-08-19T00:53:00.120Z,74.45
2018-08-19T00:55:36.793Z,74.30
2018-08-19T00:58:15.991Z,74.37
2018-08-19T01:00:44.833Z,74.51
2018-08-19T01:03:13.994Z,74.80
2018-08-19T01:05:46.775Z,73.90
2018-08-19T01:08:15.789Z,74.51
2018-08-19T01:10:46.872Z,74.58
2018-08-19T01:13:16.044Z,74.70
2018-08-19T01:15:46.191Z,73.43
2018-08-19T01:18:14.675Z,74.23
2018-08-19T01:20:43.902Z,74.14
2018-08-19T01:23:12.552Z,75.38
2018-08-19T01:25:40.990Z,74.84
2018-08-19T01:28:11.164Z,74.46
2018-08-19T01:30:39.795Z,74.06
2018-08-19T01:33:12.261Z,74.63
2018-08-19T01:35:43.360Z,74.58
2018-08-19T01:38:14.767Z,75.31
2018-08-19T01:40:43.763Z,75.60
2018-08-19T01:43:12.120Z,75.12
2018-08-19T01:45:42.580Z,75.17
2018-08-19T01:48:12.168Z,74.83
2018-08-19T01:50:42.856Z,75.18
2018-08-19T01:53:18.320Z,75.50
2018-08-19T01:55:47.443Z,75.48
2018-08-19T01:58:18.416Z,75.27
2018-08-19T02:00:48.324Z,75.14
2018-08-19T02:03:18.029Z,75.71
2018-08-19T02:05:47.371Z,75.83
2018-08-19T02:08:15.909Z,77.37
2018-08-19T02:10:44.616Z,76.85
2018-08-19T02:13:13.703Z,76.10
2018-08-19T02:15:42.717Z,75.69
2018-08-19T02:18:16.691Z,76.21
2018-08-19T02:20:46.636Z,76.22
2018-08-19T02:23:17.500Z,75.19
2018-08-19T02:25:48.063Z,76.27
2018-08-19T02:28:22.875Z,75.81
2018-08-19T02:31:00.175Z,75.54
2018-08-19T02:33:33.514Z,76.41
2018-08-19T02:36:08.557Z,76.83
2018-08-19T02:38:38.795Z,75.83
2018-08-19T02:41:07.589Z,76.20
2018-08-19T02:43:46.695Z,76.55
2018-08-19T02:46:15.042Z,76.52
2018-08-19T02:48:53.580Z,76.49
2018-08-19T02:51:23.571Z,76.44
2018-08-19T02:53:53.499Z,76.82
2018-08-19T02:56:22.281Z,76.48
2018-08-19T02:58:52.199Z,77.20
2018-08-19T03:01:20.614Z,76.83
2018-08-19T03:03:49.080Z,76.57
2018-08-19T03:06:19.349Z,76.57
2018-08-19T03:08:59.975Z,76.59
2018-08-19T03:11:30.032Z,76.88
2018-08-19T03:14:00.499Z,76.11
2018-08-19T03:16:29.566Z,76.56
2018-08-19T03:18:59.778Z,76.71
2018-08-19T03:21:29.950Z,77.34
2018-08-19T03:23:59.295Z,77.40
2018-08-19T03:26:32.519Z,77.06
2018-08-19T03:29:07.787Z,77.23
2018-08-19T03:31:36.756Z,77.85
2018-08-19T03:34:08.218Z,77.62
2018-08-19T03:36:38.527Z,79.21
2018-08-19T03:39:17.124Z,77.58
2018-08-19T03:41:47.076Z,77.54
2018-08-19T03:44:16.239Z,76.92
2018-08-19T03:46:44.560Z,77.16
2018-08-19T03:49:13.528Z,77.60
2018-08-19T03:51:42.096Z,78.55
2018-08-19T03:54:11.806Z,78.05
2018-08-19T03:56:41.621Z,78.36
2018-08-19T03:59:13.608Z,78.09
2018-08-19T04:01:43.851Z,78.37
2018-08-19T04:04:16.041Z,78.27
2018-08-19T04:06:46.137Z,78.54
2018-08-19T04:09:15.320Z,78.13
2018-08-19T04:11:43.767Z,77.60
2018-08-19T04:14:26.798Z,78.27
2018-08-19T04:16:57.552Z,78.49
2018-08-19T04:19:27.695Z,77.96
2018-08-19T04:22:01.255Z,80.54
2018-08-19T04:24:32.315Z,80.27
2018-08-19T04:27:07.238Z,79.37
2018-08-19T04:29:36.096Z,78.01
2018-08-19T04:32:07.644Z,78.13
2018-08-19T04:34:37.557Z,77.16
2018-08-19T04:37:07.579Z,79.84
2018-08-19T04:39:37.307Z,81.47
2018-08-19T04:42:07.546Z,79.70
2018-08-19T04:44:37.293Z,81.52
2018-08-19T04:47:20.128Z,81.09
2018-08-19T04:49:52.796Z,80.90
2018-08-19T04:52:24.357Z,79.14
2018-08-19T04:54:53.760Z,81.76
2018-08-19T04:57:22.543Z,80.73
2018-08-19T04:59:52.703Z,79.09
2018-08-19T05:02:22.098Z,78.07
2018-08-19T05:04:51.641Z,78.58
2018-08-19T05:07:21.377Z,76.66
2018-08-19T05:09:50.697Z,75.36
2018-08-19T05:12:19.853Z,76.69
2018-08-19T05:14:50.315Z,74.84
2018-08-19T05:17:18.982Z,73.95
2018-08-19T05:19:48.491Z,71.00
2018-08-19T05:22:16.847Z,70.20
2018-08-19T05:24:47.011Z,69.79
2018-08-19T05:27:18.172Z,72.93
2018-08-19T05:29:51.240Z,68.99
2018-08-19T05:32:20.835Z,73.05
2018-08-19T05:34:49.796Z,72.78
2018-08-19T05:37:19.624Z,70.04
2018-08-19T05:39:53.105Z,72.98
2018-08-19T05:42:24.091Z,70.64
2018-08-19T05:44:53.388Z,71.41
2018-08-19T05:47:23.929Z,69.05
2018-08-19T05:49:53.891Z,69.70
2018-08-19T05:52:25.031Z,70.66
2018-08-19T05:54:57.588Z,69.43
2018-08-19T05:57:27.044Z,69.38
2018-08-19T05:59:56.513Z,65.53
2018-08-19T06:02:31.276Z,65.13
2018-08-19T06:05:00.542Z,61.59
2018-08-19T06:07:30.871Z,60.75
2018-08-19T06:10:01.789Z,60.21
2018-08-19T06:12:30.764Z,59.27
2018-08-19T06:15:02.589Z,59.09
2018-08-19T06:17:31.469Z,59.23
2018-08-19T06:20:00.731Z,57.74
2018-08-19T06:22:34.556Z,56.04
2018-08-19T06:25:04.580Z,54.16
2018-08-19T06:27:42.655Z,54.08
2018-08-19T06:30:11.756Z,52.47
2018-08-19T06:32:41.650Z,54.99
2018-08-19T06:35:10.252Z,58.52
2018-08-19T06:37:39.845Z,53.12
2018-08-19T06:40:11.051Z,52.36
2018-08-19T06:42:40.365Z,48.29
2018-08-19T06:45:09.700Z,49.59
2018-08-19T06:47:40.507Z,51.81
2018-08-19T06:50:18.871Z,53.96
2018-08-19T06:52:47.856Z,50.72
2018-08-19T06:55:17.399Z,49.43
2018-08-19T06:57:46.124Z,48.21
2018-08-19T07:00:21.428Z,48.49
2018-08-19T07:02:49.756Z,51.04
2018-08-19T07:05:19.236Z,48.53
2018-08-19T07:07:48.617Z,42.60
2018-08-19T07:10:23.257Z,42.25
2018-08-19T07:12:56.153Z,42.28
2018-08-19T07:15:24.822Z,41.15
2018-08-19T07:17:55.116Z,42.58
2018-08-19T07:20:23.830Z,42.46
2018-08-19T07:22:52.705Z,39.37
2018-08-19T07:25:22.020Z,41.53
2018-08-19T07:27:50.562Z,43.02
2018-08-19T07:30:19.298Z,40.05
2018-08-19T07:32:48.104Z,39.24
2018-08-19T07:35:16.453Z,41.51
2018-08-19T07:37:46.164Z,41.07
2018-08-19T07:40:15.153Z,40.22
2018-08-19T07:42:43.498Z,39.57
2018-08-19T07:45:11.851Z,40.45
2018-08-19T07:47:40.237Z,38.99
2018-08-19T07:50:10.804Z,39.41
2018-08-19T07:52:39.610Z,39.36
2018-08-19T07:55:09.180Z,41.19
2018-08-19T07:57:41.772Z,44.52
2018-08-19T08:00:12.283Z,41.73
2018-08-19T08:02:40.733Z,39.82
2018-08-19T08:05:11.153Z,38.89
2018-08-19T08:07:47.876Z,37.04
2018-08-19T08:10:18.466Z,38.19
2018-08-19T08:12:54.320Z,36.97
2018-08-19T08:15:23.775Z,39.52
2018-08-19T08:17:53.088Z,39.05
2018-08-19T08:20:22.253Z,39.45
2018-08-19T08:22:50.629Z,36.19
2018-08-19T08:25:19.003Z,36.51
2018-08-19T08:27:47.648Z,39.57
2018-08-19T08:30:16.103Z,40.83
2018-08-19T08:32:46.712Z,38.74
2018-08-19T08:35:18.600Z,36.66
2018-08-19T08:37:48.261Z,34.76
2018-08-19T08:40:17.781Z,36.12
2018-08-19T08:42:47.084Z,36.50
2018-08-19T08:45:19.654Z,34.27
2018-08-19T08:47:48.412Z,33.69
2018-08-19T08:50:17.292Z,33.10
2018-08-19T08:52:46.343Z,33.65
2018-08-19T08:55:14.723Z,34.36
2018-08-19T08:57:44.515Z,33.42
2018-08-19T09:00:13.903Z,33.69
2018-08-19T09:02:43.033Z,33.60
2018-08-19T09:05:14.440Z,33.98
2018-08-19T09:07:43.003Z,34.08
2018-08-19T09:10:15.059Z,35.52
2018-08-19T09:12:56.295Z,33.04
2018-08-19T09:15:25.051Z,34.58
2018-08-19T09:17:55.492Z,34.79
2018-08-19T09:20:25.540Z,32.56
2018-08-19T09:22:54.569Z,31.23
2018-08-19T09:25:24.192Z,30.61
2018-08-19T09:27:53.656Z,31.02
2018-08-19T09:30:30.319Z,31.18
2018-08-19T09:33:00.985Z,30.82
2018-08-19T09:35:31.732Z,30.39
2018-08-19T09:38:05.733Z,30.72
2018-08-19T09:40:36.044Z,28.91
2018-08-19T09:43:07.599Z,30.36
2018-08-19T09:45:36.396Z,28.32
2018-08-19T09:48:07.048Z,28.83
2018-08-19T09:50:37.427Z,30.75
2018-08-19T09:53:07.823Z,29.94
2018-08-19T09:55:44.499Z,29.80
2018-08-19T09:58:19.923Z,29.71
2018-08-19T10:00:53.380Z,30.38
2018-08-19T10:03:24.980Z,30.68
2018-08-19T10:05:54.803Z,29.11
2018-08-19T10:08:26.715Z,27.80
2018-08-19T10:10:55.764Z,28.69
2018-08-19T10:13:24.392Z,27.72
2018-08-19T10:15:54.111Z,28.73
2018-08-19T10:18:23.551Z,31.24
2018-08-19T10:20:53.239Z,28.84
2018-08-19T10:23:25.632Z,32.17
2018-08-19T10:25:54.670Z,30.33
2018-08-19T10:28:25.468Z,29.23
2018-08-19T10:30:57.921Z,28.11
2018-08-19T10:33:27.374Z,28.31
2018-08-19T10:35:59.696Z,26.95
2018-08-19T10:38:28.742Z,26.05
2018-08-19T10:41:03.693Z,26.16
2018-08-19T10:43:32.943Z,27.93
2018-08-19T10:46:03.853Z,28.22
2018-08-19T10:48:32.996Z,28.95
2018-08-19T10:51:02.708Z,28.87
2018-08-19T10:53:32.397Z,30.86
2018-08-19T10:56:01.944Z,30.11
2018-08-19T10:58:31.364Z,28.98
2018-08-19T11:01:00.145Z,29.13
2018-08-19T11:03:29.776Z,27.50
2018-08-19T11:06:01.068Z,25.61
2018-08-19T11:08:30.360Z,25.25
2018-08-19T11:11:00.531Z,24.20
2018-08-19T11:13:31.506Z,24.23
2018-08-19T11:16:00.708Z,26.06
2018-08-19T11:18:36.933Z,24.93
2018-08-19T11:21:12.370Z,24.10
2018-08-19T11:23:43.021Z,25.24
2018-08-19T11:26:12.812Z,25.10
2018-08-19T11:28:52.354Z,24.15
2018-08-19T11:31:27.666Z,24.50
2018-08-19T11:33:57.989Z,25.05
2018-08-19T11:36:32.981Z,22.53
2018-08-19T11:39:04.463Z,23.79
2018-08-19T11:41:35.435Z,23.19
2018-08-19T11:44:07.990Z,23.34
2018-08-19T11:46:36.943Z,23.44
2018-08-19T11:49:12.940Z,24.55
2018-08-19T11:51:54.141Z,23.55
2018-08-19T11:54:25.792Z,22.84
2018-08-19T11:57:01.027Z,25.51
2018-08-19T11:59:49.411Z,24.11
2018-08-19T12:02:21.223Z,24.75
2018-08-19T12:04:50.816Z,23.20
2018-08-19T12:07:21.805Z,23.20
2018-08-19T12:09:57.627Z,24.66
2018-08-19T12:12:43.172Z,24.00
2018-08-19T12:15:12.619Z,25.22
2018-08-19T12:17:45.202Z,24.75
2018-08-19T12:20:18.488Z,25.16
2018-08-19T12:22:51.697Z,25.04
2018-08-19T12:25:22.528Z,22.95
2018-08-19T12:27:52.304Z,24.69
2018-08-19T12:30:21.286Z,25.02
2018-08-19T12:32:51.457Z,24.08
2018-08-19T12:35:21.679Z,23.70
2018-08-19T12:37:50.968Z,24.22
2018-08-19T12:40:20.713Z,24.84
2018-08-19T12:42:55.792Z,25.45
2018-08-19T12:45:25.957Z,25.77
2018-08-19T12:47:55.944Z,26.36
2018-08-19T12:50:25.600Z,27.53
2018-08-19T12:52:54.667Z,27.03
2018-08-19T12:55:24.374Z,27.63
2018-08-19T12:58:02.425Z,25.75
2018-08-19T13:00:31.575Z,25.60
2018-08-19T13:03:02.788Z,26.10
2018-08-19T13:05:34.244Z,26.17
2018-08-19T13:08:04.668Z,25.09
2018-08-19T13:10:39.843Z,25.94
2018-08-19T13:13:09.268Z,27.10
2018-08-19T13:15:40.346Z,26.22
2018-08-19T13:18:10.292Z,27.58
2018-08-19T13:20:41.797Z,25.85
2018-08-19T13:23:10.836Z,26.54
2018-08-19T13:25:47.944Z,26.06
2018-08-19T13:28:17.205Z,26.00
2018-08-19T13:30:47.189Z,26.35
2018-08-19T13:33:17.908Z,24.59
2018-08-19T13:35:47.025Z,26.25
2018-08-19T13:38:30.861Z,26.21
2018-08-19T13:41:00.200Z,28.94
2018-08-19T13:43:29.534Z,29.33
2018-08-19T13:45:59.640Z,28.36
2018-08-19T13:48:28.672Z,28.51
2018-08-19T13:50:58.056Z,27.67
2018-08-19T13:53:29.161Z,27.74
2018-08-19T13:55:58.464Z,28.92
2018-08-19T13:58:28.725Z,29.54
2018-08-19T14:01:00.119Z,29.10
2018-08-19T14:03:30.986Z,28.75
2018-08-19T14:06:03.066Z,30.23
2018-08-19T14:08:34.648Z,28.98
2018-08-19T14:11:06.224Z,29.33
2018-08-19T14:13:36.014Z,29.54
2018-08-19T14:16:06.260Z,30.06
2018-08-19T14:18:36.632Z,30.22
2018-08-19T14:21:07.058Z,30.41
2018-08-19T14:23:38.843Z,29.53
2018-08-19T14:26:12.588Z,30.52
2018-08-19T14:28:48.180Z,30.96
2018-08-19T14:31:17.369Z,30.86
2018-08-19T14:33:47.598Z,31.47
2018-08-19T14:36:16.956Z,31.11
2018-08-19T14:38:46.664Z,30.60
2018-08-19T14:41:16.015Z,30.41
2018-08-19T14:44:01.189Z,31.07
2018-08-19T14:46:35.998Z,30.23
2018-08-19T14:49:06.323Z,30.73
2018-08-19T14:51:47.263Z,30.33
2018-08-19T14:54:18.044Z,31.20
2018-08-19T14:56:50.548Z,30.83
2018-08-19T14:59:19.744Z,30.98
2018-08-19T15:01:49.671Z,31.43
2018-08-19T15:04:20.155Z,30.08
2018-08-19T15:06:50.140Z,30.56
2018-08-19T15:09:32.568Z,30.16
2018-08-19T15:12:17.225Z,30.11
2018-08-19T15:14:50.725Z,30.39
2018-08-19T15:17:22.001Z,29.76
2018-08-19T15:19:57.986Z,30.34
2018-08-19T15:22:27.998Z,30.59
2018-08-19T15:25:00.295Z,30.14
2018-08-19T15:27:29.728Z,31.44
2018-08-19T15:30:00.913Z,31.63
2018-08-19T15:32:32.143Z,32.02
2018-08-19T15:35:02.096Z,31.22
2018-08-19T15:37:38.212Z,31.90
2018-08-19T15:40:07.683Z,30.93
2018-08-19T15:42:38.073Z,31.88
2018-08-19T15:45:08.189Z,32.27
2018-08-19T15:47:40.153Z,32.13
2018-08-19T15:50:19.162Z,31.80
2018-08-19T15:52:49.704Z,32.92
2018-08-19T15:55:19.840Z,32.70
2018-08-19T15:57:48.407Z,33.36
2018-08-19T16:00:17.568Z,33.98
2018-08-19T16:02:49.237Z,34.18
2018-08-19T16:05:20.636Z,34.51
2018-08-19T16:07:54.752Z,34.25
2018-08-19T16:10:28.812Z,34.47
2018-08-19T16:12:59.147Z,34.42
2018-08-19T16:15:32.422Z,33.98
2018-08-19T16:18:04.338Z,34.43
2018-08-19T16:20:35.477Z,34.97
2018-08-19T16:23:06.046Z,35.79
2018-08-19T16:25:38.200Z,35.72
2018-08-19T16:28:08.700Z,36.17
2018-08-19T16:30:38.433Z,36.29
2018-08-19T16:33:08.621Z,35.68
2018-08-19T16:35:37.485Z,35.28
2018-08-19T16:38:08.216Z,35.43
2018-08-19T16:40:37.239Z,35.23
2018-08-19T16:43:05.878Z,35.74
2018-08-19T16:45:36.022Z,35.86
2018-08-19T16:48:09.566Z,35.28
2018-08-19T16:50:38.616Z,35.98
2018-08-19T16:53:10.012Z,36.04
2018-08-19T16:55:40.099Z,36.39
2018-08-19T16:58:09.096Z,36.79
2018-08-19T17:00:41.159Z,37.10
2018-08-19T17:03:28.628Z,36.76
2018-08-19T17:06:00.449Z,36.89
2018-08-19T17:08:30.783Z,37.16
2018-08-19T17:11:01.030Z,37.22
2018-08-19T17:13:29.953Z,37.31
2018-08-19T17:16:02.519Z,36.86
2018-08-19T17:18:37.091Z,37.56
2018-08-19T17:21:05.839Z,37.91
2018-08-19T17:23:41.196Z,38.30
2018-08-19T17:26:16.616Z,38.23
2018-08-19T17:28:46.576Z,38.45
2018-08-19T17:31:18.020Z,38.56
2018-08-19T17:36:50.499Z,39.28
2018-08-19T17:39:24.207Z,38.68
2018-08-19T17:41:54.528Z,39.11
2018-08-19T17:44:23.852Z,39.07
2018-08-19T17:46:55.477Z,39.22
2018-08-19T17:49:26.828Z,39.71
2018-08-19T17:52:02.779Z,40.57
2018-08-19T17:54:35.340Z,40.45
2018-08-19T17:57:04.209Z,40.22
2018-08-19T17:59:38.380Z,40.61
2018-08-19T18:02:09.020Z,40.90
2018-08-19T18:04:45.464Z,40.32
2018-08-19T18:07:19.401Z,40.99
2018-08-19T18:09:55.808Z,41.58
2018-08-19T18:12:29.992Z,42.33
2018-08-19T18:15:00.843Z,42.19
2018-08-19T18:17:33.949Z,44.66
2018-08-19T18:20:26.105Z,45.65
2018-08-19T18:22:58.500Z,46.08
2018-08-19T18:25:29.393Z,46.91
2018-08-19T18:28:00.388Z,47.19
2018-08-19T18:30:30.177Z,47.61
2018-08-19T18:33:03.651Z,47.62
2018-08-19T18:35:33.909Z,48.43
2018-08-19T18:38:03.150Z,48.39
2018-08-19T18:40:36.180Z,48.21
2018-08-19T18:43:06.040Z,48.71
2018-08-19T18:45:38.173Z,49.62
2018-08-19T18:48:08.465Z,49.34
2018-08-19T18:50:37.688Z,49.44
2018-08-19T18:53:08.264Z,50.82
2018-08-19T18:55:42.462Z,50.59
2018-08-19T18:58:12.921Z,51.00
2018-08-19T19:00:49.213Z,51.61
2018-08-19T19:03:18.433Z,51.51
2018-08-19T19:05:49.152Z,53.12
2018-08-19T19:08:18.844Z,53.80
2018-08-19T19:10:58.365Z,54.74
2018-08-19T19:13:28.672Z,55.56
2018-08-19T19:15:58.008Z,56.61
2018-08-19T19:18:26.978Z,56.97
2018-08-19T19:21:05.515Z,56.82
2018-08-19T19:23:38.304Z,57.37
2018-08-19T19:26:08.656Z,57.70
2018-08-19T19:28:37.603Z,57.47
2018-08-19T19:31:11.791Z,58.09
2018-08-19T19:33:41.020Z,58.31
2018-08-19T19:36:16.011Z,59.01
2018-08-19T19:38:49.137Z,59.77
2018-08-19T19:41:23.967Z,58.91
2018-08-19T19:43:52.311Z,60.02
2018-08-19T19:46:20.868Z,60.14
2018-08-19T19:48:53.579Z,59.89
2018-08-19T19:51:23.533Z,60.08
2018-08-19T19:53:53.607Z,59.73
2018-08-19T19:56:22.276Z,60.69
2018-08-19T19:58:51.796Z,61.18
2018-08-19T20:01:22.248Z,61.09
2018-08-19T20:03:53.996Z,61.00
2018-08-19T20:06:25.090Z,61.87
2018-08-19T20:08:53.711Z,61.99
2018-08-19T20:11:30.063Z,61.84
2018-08-19T20:14:03.159Z,61.69
2018-08-19T20:16:31.492Z,62.72
2018-08-19T20:19:01.947Z,62.96
2018-08-19T20:21:34.446Z,63.18
2018-08-19T20:24:04.408Z,63.69
2018-08-19T20:26:33.182Z,63.12
2018-08-19T20:29:03.875Z,63.05
2018-08-19T20:31:33.388Z,63.69
2018-08-19T20:34:04.464Z,63.59
2018-08-19T20:36:33.112Z,64.97
2018-08-19T20:39:05.493Z,64.74
2018-08-19T20:41:34.264Z,64.16
2018-08-19T20:44:02.956Z,64.51
2018-08-19T20:46:32.827Z,65.12
2018-08-19T20:49:01.865Z,65.48
2018-08-19T20:51:30.204Z,65.74
2018-08-19T20:54:01.485Z,65.03
2018-08-19T20:56:30.767Z,64.96
2018-08-19T21:25:06.496Z,68.63
2018-08-19T21:27:36.041Z,68.69
2018-08-19T21:30:05.400Z,69.24
2018-08-19T21:32:34.720Z,70.00
2018-08-19T21:35:04.683Z,70.01
2018-08-19T21:37:36.480Z,70.21
2018-08-19T21:40:06.163Z,70.24
2018-08-19T21:42:54.399Z,71.11
2018-08-19T21:45:25.012Z,71.23
2018-08-19T21:47:55.997Z,71.41
2018-08-19T21:50:25.217Z,71.91
2018-08-19T21:53:08.585Z,71.06
2018-08-19T21:55:39.256Z,71.59
2018-08-19T21:58:10.516Z,72.08
2018-08-19T22:00:45.316Z,72.50
2018-08-19T22:03:21.081Z,72.44
2018-08-19T22:05:51.112Z,72.15
2018-08-19T22:08:23.416Z,73.86
2018-08-19T22:10:55.455Z,73.46
2018-08-19T22:13:24.424Z,74.99
2018-08-19T22:15:53.203Z,74.19
2018-08-19T22:18:22.709Z,75.07
2018-08-19T22:21:24.404Z,75.55
2018-08-19T22:23:56.262Z,75.40
2018-08-19T22:26:24.936Z,75.21
2018-08-19T22:29:08.942Z,76.37
2018-08-19T22:31:37.364Z,76.32
2018-08-19T22:34:05.729Z,76.01
2018-08-19T22:36:34.133Z,75.78
2018-08-19T22:39:03.135Z,76.08
2018-08-19T22:41:33.454Z,76.42
2018-08-19T22:44:01.956Z,75.88
2018-08-19T22:46:31.403Z,74.99
2018-08-19T22:48:59.832Z,75.43
2018-08-19T22:51:33.092Z,76.11
2018-08-19T22:54:02.190Z,76.60
2018-08-19T22:56:31.279Z,75.78
2018-08-19T22:59:00.165Z,76.81
2018-08-19T23:01:36.128Z,76.63
2018-08-19T23:04:07.408Z,76.79
2018-08-19T23:06:37.036Z,75.71
2018-08-19T23:09:07.968Z,76.14
2018-08-19T23:11:44.851Z,76.41
2018-08-19T23:14:25.895Z,77.02
2018-08-19T23:16:55.540Z,77.58
2018-08-19T23:19:26.209Z,77.29
2018-08-19T23:21:54.928Z,76.59
2018-08-19T23:24:24.589Z,77.61
2018-08-19T23:26:54.195Z,76.84
2018-08-19T23:29:26.574Z,76.51
2018-08-19T23:31:56.300Z,77.53
2018-08-19T23:34:25.428Z,77.18
2018-08-19T23:36:54.471Z,77.71
2018-08-19T23:39:23.847Z,77.21
2018-08-19T23:41:52.604Z,77.65
2018-08-19T23:44:21.953Z,77.05
2018-08-19T23:46:53.583Z,77.24
2018-08-19T23:49:22.987Z,77.13
2018-08-19T23:51:55.945Z,77.38
2018-08-19T23:54:26.261Z,77.41
2018-08-19T23:56:59.839Z,77.39
2018-08-19T23:59:39.197Z,78.49
